Time;durP1;ratioP1;P1;durP2;ratioP2;P2;SDS_P1;SDS_P2;PMS_P1;PMS_P2;Temp;Humidity;BMP_temperature;BMP_pressure;BME280_temperature;BME280_humidity;BME280_pressure;Samples;Min_cycle;Max_cycle;Signal;HPM_P1;HPM_P2
2022/04/24 00:01:25;;;;;;;;;;;22.50;42.70;;;;;;6311986;27;20696;-53
2022/04/24 00:04:27;;;;;;;;;;;22.40;42.70;;;;;;6309148;27;19934;-53
2022/04/24 00:07:29;;;;;;;;;;;22.40;42.70;;;;;;6314944;27;20046;-54
2022/04/24 00:10:31;;;;;;;;;;;22.50;42.80;;;;;;6315577;27;20002;-51
2022/04/24 00:13:37;;;;;;;;;;;22.40;42.70;;;;;;6311947;27;19970;-49
2022/04/24 00:16:42;;;;;;;;;;;22.70;42.90;;;;;;6313387;27;20833;-52
2022/04/24 00:19:44;;;;;;;;;;;22.30;42.70;;;;;;6314783;27;19933;-51
2022/04/24 00:22:45;;;;;;;;;;;22.40;42.80;;;;;;6307122;27;19932;-48
2022/04/24 00:25:46;;;;;;;;;;;22.20;42.70;;;;;;6301810;27;20883;-53
2022/04/24 00:28:48;;;;;;;;;;;22.50;42.80;;;;;;6307558;27;19932;-49
2022/04/24 00:31:50;;;;;;;;;;;22.50;42.80;;;;;;6298075;27;19988;-54
2022/04/24 00:34:51;;;;;;;;;;;22.40;42.90;;;;;;6268134;27;20028;-50
2022/04/24 00:37:53;;;;;;;;;;;22.30;42.80;;;;;;6308569;27;19963;-52
2022/04/24 00:40:54;;;;;;;;;;;22.40;42.80;;;;;;6312081;27;20474;-47
2022/04/24 00:43:55;;;;;;;;;;;22.40;42.80;;;;;;6304977;27;19930;-53
2022/04/24 00:47:18;;;;;;;;;;;22.40;42.90;;;;;;6304611;27;20720;-49
2022/04/24 00:50:19;;;;;;;;;;;22.50;42.90;;;;;;6311660;27;20008;-51
2022/04/24 00:53:20;;;;;;;;;;;22.40;43.00;;;;;;6307461;27;20038;-53
2022/04/24 00:56:23;;;;;;;;;;;22.40;43.00;;;;;;6309750;27;19934;-52
2022/04/24 00:59:25;;;;;;;;;;;22.40;43.00;;;;;;6315219;27;19931;-51
2022/04/24 01:02:27;;;;;;;;;;;22.40;43.00;;;;;;6310278;27;19963;-47
2022/04/24 01:05:29;;;;;;;;;;;22.40;43.10;;;;;;6307630;27;20080;-53
2022/04/24 01:08:30;;;;;;;;;;;22.30;43.00;;;;;;6313433;27;19962;-50
2022/04/24 01:11:31;;;;;;;;;;;22.20;43.00;;;;;;6315593;27;19923;-52
2022/04/24 01:14:33;;;;;;;;;;;22.30;43.10;;;;;;6308507;27;19931;-52
2022/04/24 01:17:35;;;;;;;;;;;22.30;43.20;;;;;;6296126;27;19931;-50
2022/04/24 01:20:37;;;;;;;;;;;22.20;43.10;;;;;;6311128;27;19939;-50
2022/04/24 01:23:39;;;;;;;;;;;22.20;43.10;;;;;;6300036;27;19938;-49
2022/04/24 01:26:40;;;;;;;;;;;22.30;43.10;;;;;;6284663;27;19924;-49
2022/04/24 01:29:42;;;;;;;;;;;22.20;43.10;;;;;;6298928;27;19923;-47
2022/04/24 01:32:43;;;;;;;;;;;22.40;43.30;;;;;;6305808;27;20094;-48
2022/04/24 01:35:45;;;;;;;;;;;22.20;43.10;;;;;;6287460;27;21281;-52
2022/04/24 01:38:47;;;;;;;;;;;22.20;43.20;;;;;;6307576;27;19923;-50
2022/04/24 01:41:48;;;;;;;;;;;22.30;43.30;;;;;;6305300;27;19981;-50
2022/04/24 01:44:49;;;;;;;;;;;22.20;43.20;;;;;;6295982;27;19932;-51
2022/04/24 01:47:51;;;;;;;;;;;22.10;43.20;;;;;;6291720;27;19931;-53
2022/04/24 01:50:54;;;;;;;;;;;22.30;43.30;;;;;;6305821;27;19923;-52
2022/04/24 01:53:55;;;;;;;;;;;22.20;43.20;;;;;;6286803;28;19928;-50
2022/04/24 01:56:56;;;;;;;;;;;22.20;43.30;;;;;;6301065;27;20000;-50
2022/04/24 01:59:58;;;;;;;;;;;22.10;43.20;;;;;;6304491;27;20013;-49
2022/04/24 02:02:59;;;;;;;;;;;22.20;43.30;;;;;;6302290;27;21095;-50
2022/04/24 02:06:02;;;;;;;;;;;22.10;43.20;;;;;;6304691;27;19933;-48
2022/04/24 02:09:04;;;;;;;;;;;22.20;43.30;;;;;;6292251;27;19939;-52
2022/04/24 02:12:05;;;;;;;;;;;22.20;43.30;;;;;;6314464;27;19931;-51
2022/04/24 02:15:07;;;;;;;;;;;22.20;43.30;;;;;;6305359;27;20001;-51
2022/04/24 02:18:08;;;;;;;;;;;22.20;43.40;;;;;;6308990;27;20038;-49
2022/04/24 02:21:11;;;;;;;;;;;22.10;43.40;;;;;;6311637;27;19923;-49
2022/04/24 02:24:12;;;;;;;;;;;22.20;43.40;;;;;;6305834;27;19992;-51
2022/04/24 02:27:13;;;;;;;;;;;22.10;43.30;;;;;;6303494;27;20032;-52
2022/04/24 02:30:15;;;;;;;;;;;22.20;43.40;;;;;;6311070;27;19931;-51
2022/04/24 02:33:16;;;;;;;;;;;22.20;43.40;;;;;;6313886;28;19932;-53
2022/04/24 02:36:18;;;;;;;;;;;22.00;43.40;;;;;;6308673;27;19999;-47
2022/04/24 02:39:19;;;;;;;;;;;22.10;43.40;;;;;;6312982;27;20003;-50
2022/04/24 02:42:21;;;;;;;;;;;22.20;43.40;;;;;;6317052;27;19931;-51
2022/04/24 02:45:22;;;;;;;;;;;22.10;43.40;;;;;;6310414;27;20811;-51
2022/04/24 02:48:27;;;;;;;;;;;22.30;43.50;;;;;;6311498;27;19979;-50
2022/04/24 02:51:29;;;;;;;;;;;22.20;43.40;;;;;;6313700;27;19956;-50
2022/04/24 02:54:30;;;;;;;;;;;22.10;43.40;;;;;;6310117;28;19931;-48
2022/04/24 02:57:33;;;;;;;;;;;22.10;43.50;;;;;;6315646;27;19999;-50
2022/04/24 03:00:43;;;;;;;;;;;22.10;43.40;;;;;;6317291;27;20140;-52
2022/04/24 03:03:45;;;;;;;;;;;22.20;43.60;;;;;;6295389;27;20781;-50
2022/04/24 03:06:47;;;;;;;;;;;22.20;43.60;;;;;;6296833;28;19931;-51
2022/04/24 03:09:48;;;;;;;;;;;22.20;43.60;;;;;;6317952;27;19923;-52
2022/04/24 03:12:50;;;;;;;;;;;22.10;43.50;;;;;;6316886;27;19935;-49
2022/04/24 03:15:51;;;;;;;;;;;22.00;43.50;;;;;;6311902;27;19935;-50
2022/04/24 03:18:52;;;;;;;;;;;22.10;43.60;;;;;;6318291;27;20050;-47
2022/04/24 03:21:54;;;;;;;;;;;22.00;43.50;;;;;;6317128;27;20762;-51
2022/04/24 03:24:56;;;;;;;;;;;22.10;43.60;;;;;;6310251;27;20046;-49
2022/04/24 03:27:57;;;;;;;;;;;22.00;43.60;;;;;;6309678;27;20917;-52
2022/04/24 03:30:58;;;;;;;;;;;22.10;43.60;;;;;;6315283;27;19935;-50
2022/04/24 03:34:00;;;;;;;;;;;22.10;43.60;;;;;;6309256;27;20800;-50
2022/04/24 03:37:02;;;;;;;;;;;22.00;43.60;;;;;;6315148;27;19963;-50
2022/04/24 03:40:04;;;;;;;;;;;21.90;43.60;;;;;;6318666;27;20614;-50
2022/04/24 03:43:06;;;;;;;;;;;22.10;43.60;;;;;;6315818;27;20671;-53
2022/04/24 03:46:07;;;;;;;;;;;21.80;43.40;;;;;;6312195;27;19928;-48
2022/04/24 03:49:08;;;;;;;;;;;22.20;43.70;;;;;;6319912;27;19938;-52
2022/04/24 03:52:11;;;;;;;;;;;22.10;43.70;;;;;;6321705;27;20862;-51
2022/04/24 03:55:12;;;;;;;;;;;22.00;43.70;;;;;;6312140;28;20240;-49
2022/04/24 03:58:14;;;;;;;;;;;21.90;43.60;;;;;;6319850;28;20042;-51
2022/04/24 04:01:15;;;;;;;;;;;22.00;43.70;;;;;;6315649;27;19934;-51
2022/04/24 04:04:17;;;;;;;;;;;22.00;43.80;;;;;;6311778;27;19932;-52
2022/04/24 04:07:19;;;;;;;;;;;22.00;43.70;;;;;;6316609;27;19946;-48
2022/04/24 04:10:21;;;;;;;;;;;22.00;43.70;;;;;;6314622;27;19927;-51
2022/04/24 04:13:23;;;;;;;;;;;21.90;43.70;;;;;;6297828;28;19967;-49
2022/04/24 04:16:25;;;;;;;;;;;22.10;43.80;;;;;;6313797;27;19927;-51
2022/04/24 04:19:26;;;;;;;;;;;22.00;43.80;;;;;;6313233;27;19930;-51
2022/04/24 04:22:28;;;;;;;;;;;21.90;43.70;;;;;;6312990;27;19965;-50
2022/04/24 04:25:29;;;;;;;;;;;22.00;43.80;;;;;;6301538;27;19924;-50
2022/04/24 04:28:31;;;;;;;;;;;21.90;43.70;;;;;;6309458;27;19930;-52
2022/04/24 04:31:32;;;;;;;;;;;22.10;43.90;;;;;;6312275;27;19924;-51
2022/04/24 04:34:34;;;;;;;;;;;22.00;43.80;;;;;;6300914;27;19931;-52
2022/04/24 04:37:36;;;;;;;;;;;22.00;43.80;;;;;;6310594;27;19963;-52
2022/04/24 04:40:37;;;;;;;;;;;22.00;43.90;;;;;;6312622;27;19938;-50
2022/04/24 04:43:39;;;;;;;;;;;21.90;43.80;;;;;;6308946;27;19931;-50
2022/04/24 04:46:40;;;;;;;;;;;22.00;43.90;;;;;;6308627;27;19928;-52
2022/04/24 04:49:41;;;;;;;;;;;21.90;43.80;;;;;;6313996;27;19959;-49
2022/04/24 04:52:43;;;;;;;;;;;22.20;44.00;;;;;;6309336;27;20040;-52
2022/04/24 04:55:45;;;;;;;;;;;21.90;43.90;;;;;;6306993;28;19931;-49
2022/04/24 04:58:46;;;;;;;;;;;21.90;43.90;;;;;;6311714;27;19927;-49
2022/04/24 05:01:47;;;;;;;;;;;21.80;43.90;;;;;;6307875;27;19997;-52
2022/04/24 05:04:49;;;;;;;;;;;21.90;43.90;;;;;;6307585;27;20133;-50
2022/04/24 05:07:52;;;;;;;;;;;22.00;44.00;;;;;;6314602;27;20773;-51
2022/04/24 05:10:54;;;;;;;;;;;22.00;44.00;;;;;;6314528;27;19928;-53
2022/04/24 05:13:55;;;;;;;;;;;21.80;43.90;;;;;;6311129;27;19939;-51
2022/04/24 05:16:56;;;;;;;;;;;21.80;43.90;;;;;;6308878;27;19924;-49
2022/04/24 05:19:58;;;;;;;;;;;21.90;44.00;;;;;;6316175;27;20033;-49
2022/04/24 05:23:04;;;;;;;;;;;21.90;44.00;;;;;;6312474;27;19977;-50
2022/04/24 05:26:06;;;;;;;;;;;22.00;44.10;;;;;;6290301;28;19952;-50
2022/04/24 05:29:07;;;;;;;;;;;21.90;44.00;;;;;;6310191;27;19931;-49
2022/04/24 05:32:10;;;;;;;;;;;21.90;44.10;;;;;;6286896;28;19979;-50
2022/04/24 05:35:12;;;;;;;;;;;22.00;44.10;;;;;;6294801;27;19931;-52
2022/04/24 05:38:14;;;;;;;;;;;21.90;44.10;;;;;;6311270;27;19931;-53
2022/04/24 05:41:15;;;;;;;;;;;21.80;44.00;;;;;;6316195;27;19993;-50
2022/04/24 05:44:16;;;;;;;;;;;21.90;44.10;;;;;;6307038;27;20038;-50
2022/04/24 05:47:18;;;;;;;;;;;21.80;44.00;;;;;;6310847;27;19923;-51
2022/04/24 05:50:19;;;;;;;;;;;22.00;44.20;;;;;;6312071;28;19938;-51
2022/04/24 05:53:21;;;;;;;;;;;21.90;44.10;;;;;;6294083;27;20958;-49
2022/04/24 05:56:23;;;;;;;;;;;21.90;44.10;;;;;;6309332;27;19961;-49
2022/04/24 05:59:24;;;;;;;;;;;21.80;44.10;;;;;;6314989;27;19989;-50
2022/04/24 06:02:25;;;;;;;;;;;21.80;44.20;;;;;;6310322;27;20057;-47
2022/04/24 06:05:27;;;;;;;;;;;21.90;44.20;;;;;;6307563;27;19944;-49
2022/04/24 06:08:29;;;;;;;;;;;21.90;44.20;;;;;;6311513;27;20046;-52
2022/04/24 06:11:30;;;;;;;;;;;21.80;44.10;;;;;;6312304;27;20862;-50
2022/04/24 06:14:32;;;;;;;;;;;21.70;44.10;;;;;;6307369;27;19970;-51
2022/04/24 06:17:33;;;;;;;;;;;21.80;44.20;;;;;;6311408;27;19976;-49
2022/04/24 06:20:34;;;;;;;;;;;21.90;44.20;;;;;;6313469;27;19928;-51
2022/04/24 06:23:36;;;;;;;;;;;21.80;44.20;;;;;;6308227;27;20072;-49
2022/04/24 06:26:39;;;;;;;;;;;21.90;44.20;;;;;;6303975;27;19931;-48
2022/04/24 06:29:41;;;;;;;;;;;21.80;44.20;;;;;;6310446;27;19931;-49
2022/04/24 06:32:43;;;;;;;;;;;21.90;44.30;;;;;;6309471;27;20935;-50
2022/04/24 06:35:45;;;;;;;;;;;21.90;44.20;;;;;;6277483;27;20763;-49
2022/04/24 06:38:47;;;;;;;;;;;21.90;44.30;;;;;;6308835;27;19927;-50
2022/04/24 06:41:48;;;;;;;;;;;21.80;44.20;;;;;;6311488;27;19979;-52
2022/04/24 06:44:55;;;;;;;;;;;21.90;44.20;;;;;;6302780;27;19931;-47
2022/04/24 06:47:57;;;;;;;;;;;21.90;44.30;;;;;;6311378;27;19934;-50
2022/04/24 06:50:59;;;;;;;;;;;21.90;44.30;;;;;;6306235;27;20018;-53
2022/04/24 06:54:00;;;;;;;;;;;21.70;44.20;;;;;;6304232;27;19970;-53
2022/04/24 06:57:02;;;;;;;;;;;21.90;44.30;;;;;;6308718;27;19955;-49
2022/04/24 07:00:04;;;;;;;;;;;21.90;44.30;;;;;;6310855;27;19958;-48
2022/04/24 07:03:09;;;;;;;;;;;22.00;44.40;;;;;;6310391;27;19962;-52
2022/04/24 07:06:11;;;;;;;;;;;22.00;44.30;;;;;;6290894;28;20554;-48
2022/04/24 07:09:13;;;;;;;;;;;21.90;44.30;;;;;;6311779;27;20880;-50
2022/04/24 07:12:14;;;;;;;;;;;21.90;44.30;;;;;;6308975;27;19938;-48
2022/04/24 07:15:17;;;;;;;;;;;22.00;44.40;;;;;;6302979;27;20877;-52
2022/04/24 07:18:18;;;;;;;;;;;22.00;44.30;;;;;;6316206;27;20855;-50
2022/04/24 07:21:19;;;;;;;;;;;22.00;44.30;;;;;;6317326;27;20078;-48
2022/04/24 07:24:21;;;;;;;;;;;21.90;44.30;;;;;;6312257;27;19931;-49
2022/04/24 07:27:22;;;;;;;;;;;22.00;44.40;;;;;;6309554;27;19975;-53
2022/04/24 07:30:24;;;;;;;;;;;21.80;44.20;;;;;;6311279;27;20845;-47
2022/04/24 07:33:26;;;;;;;;;;;22.00;44.30;;;;;;6310015;27;20057;-53
2022/04/24 07:36:27;;;;;;;;;;;22.00;44.30;;;;;;6282475;27;19931;-49
2022/04/24 07:39:31;;;;;;;;;;;22.10;44.40;;;;;;6313756;27;19931;-50
2022/04/24 07:42:42;;;;;;;;;;;21.90;44.20;;;;;;6314437;27;20016;-53
2022/04/24 07:45:47;;;;;;;;;;;21.90;44.20;;;;;;6289211;28;19966;-49
2022/04/24 07:48:48;;;;;;;;;;;22.00;44.20;;;;;;6294815;27;21609;-47
2022/04/24 07:51:49;;;;;;;;;;;22.10;44.20;;;;;;6288682;27;19931;-49
2022/04/24 07:54:51;;;;;;;;;;;22.10;44.20;;;;;;6308382;27;19932;-51
2022/04/24 07:57:53;;;;;;;;;;;22.00;44.10;;;;;;6314659;27;20045;-48
2022/04/24 08:00:55;;;;;;;;;;;22.10;44.10;;;;;;6294858;27;20042;-49
2022/04/24 08:03:57;;;;;;;;;;;22.20;44.10;;;;;;6309035;27;20915;-51
2022/04/24 08:06:58;;;;;;;;;;;22.20;44.10;;;;;;6307930;27;21335;-48
2022/04/24 08:10:00;;;;;;;;;;;22.20;44.00;;;;;;6312291;27;19983;-53
2022/04/24 08:13:04;;;;;;;;;;;22.10;43.90;;;;;;6311478;27;20015;-48
2022/04/24 08:16:05;;;;;;;;;;;22.30;44.00;;;;;;6291493;27;19927;-52
2022/04/24 08:19:06;;;;;;;;;;;22.40;44.00;;;;;;6311543;27;19927;-49
2022/04/24 08:22:08;;;;;;;;;;;22.30;43.90;;;;;;6312480;27;20054;-49
2022/04/24 08:25:11;;;;;;;;;;;22.40;43.90;;;;;;6306851;27;20060;-49
2022/04/24 08:28:12;;;;;;;;;;;22.50;43.80;;;;;;6288702;27;20008;-50
2022/04/24 08:31:14;;;;;;;;;;;22.40;43.70;;;;;;6293940;28;20888;-52
2022/04/24 08:34:15;;;;;;;;;;;22.30;43.60;;;;;;6301043;27;19939;-51
2022/04/24 08:37:17;;;;;;;;;;;22.50;43.70;;;;;;6306531;27;20026;-51
2022/04/24 08:40:20;;;;;;;;;;;22.50;43.70;;;;;;6311229;27;20824;-54
2022/04/24 08:43:23;;;;;;;;;;;22.50;43.60;;;;;;6304664;27;22155;-53
2022/04/24 08:46:25;;;;;;;;;;;22.60;43.70;;;;;;6308558;28;20042;-50
2022/04/24 08:49:26;;;;;;;;;;;22.40;43.60;;;;;;6311560;27;20042;-50
2022/04/24 08:52:28;;;;;;;;;;;22.60;43.60;;;;;;6310405;27;19938;-50
2022/04/24 08:55:31;;;;;;;;;;;22.70;43.70;;;;;;6306251;27;20754;-49
2022/04/24 08:58:32;;;;;;;;;;;22.60;43.60;;;;;;6294489;28;19923;-51
2022/04/24 09:01:41;;;;;;;;;;;22.70;43.70;;;;;;6303250;27;19939;-51
2022/04/24 09:04:42;;;;;;;;;;;22.60;43.60;;;;;;6298663;27;20007;-53
2022/04/24 09:07:45;;;;;;;;;;;22.60;43.60;;;;;;6308187;28;20824;-50
2022/04/24 09:11:07;;;;;;;;;;;22.70;43.60;;;;;;6296881;27;19923;-47
2022/04/24 09:14:18;;;;;;;;;;;22.70;43.70;;;;;;6309864;27;19985;-50
2022/04/24 09:17:20;;;;;;;;;;;22.80;43.60;;;;;;6308981;27;19938;-52
2022/04/24 09:20:21;;;;;;;;;;;22.80;43.70;;;;;;6311034;27;19934;-49
2022/04/24 09:23:32;;;;;;;;;;;22.80;43.60;;;;;;6309680;28;19946;-48
2022/04/24 09:26:34;;;;;;;;;;;22.80;43.60;;;;;;6297333;27;19983;-50
2022/04/24 09:29:50;;;;;;;;;;;22.80;43.50;;;;;;6308081;27;21719;-51
2022/04/24 09:32:52;;;;;;;;;;;22.80;43.60;;;;;;6309339;27;19937;-50
2022/04/24 09:35:55;;;;;;;;;;;22.80;43.60;;;;;;6281455;27;19931;-47
2022/04/24 09:38:56;;;;;;;;;;;22.90;43.70;;;;;;6306156;27;20042;-50
2022/04/24 09:42:01;;;;;;;;;;;22.90;43.60;;;;;;6310698;27;19932;-47
2022/04/24 09:45:03;;;;;;;;;;;22.90;43.60;;;;;;6295626;27;19932;-53
2022/04/24 09:48:25;;;;;;;;;;;22.90;43.70;;;;;;6291778;28;19938;-47
2022/04/24 09:51:27;;;;;;;;;;;22.90;43.60;;;;;;6311741;27;20938;-50
2022/04/24 09:54:29;;;;;;;;;;;22.90;43.60;;;;;;6307545;27;19974;-49
2022/04/24 09:57:30;;;;;;;;;;;22.80;43.50;;;;;;6309155;27;20042;-48
2022/04/24 10:00:32;;;;;;;;;;;23.00;43.60;;;;;;6291838;28;21118;-52
2022/04/24 10:03:35;;;;;;;;;;;23.00;43.60;;;;;;6289608;28;19967;-49
2022/04/24 10:06:40;;;;;;;;;;;23.00;43.60;;;;;;6298321;27;19974;-53
2022/04/24 10:09:42;;;;;;;;;;;23.00;43.60;;;;;;6309122;27;19963;-53
2022/04/24 10:12:48;;;;;;;;;;;23.20;43.70;;;;;;6309407;27;19928;-52
2022/04/24 10:15:55;;;;;;;;;;;23.00;43.60;;;;;;6304263;27;20055;-48
2022/04/24 10:18:59;;;;;;;;;;;23.00;43.60;;;;;;6310199;27;19923;-51
2022/04/24 10:22:04;;;;;;;;;;;22.90;43.60;;;;;;6308860;27;19970;-53
2022/04/24 10:25:06;;;;;;;;;;;23.10;43.70;;;;;;6305421;27;20124;-51
2022/04/24 10:28:09;;;;;;;;;;;23.00;43.60;;;;;;6297339;27;19975;-51
2022/04/24 10:31:11;;;;;;;;;;;22.90;43.50;;;;;;6306105;27;20041;-49
2022/04/24 10:34:13;;;;;;;;;;;23.10;43.70;;;;;;6275576;28;19932;-49
2022/04/24 10:37:24;;;;;;;;;;;23.10;43.60;;;;;;6299575;27;20908;-49
2022/04/24 10:40:25;;;;;;;;;;;23.10;43.60;;;;;;6303752;27;20831;-50
2022/04/24 10:43:37;;;;;;;;;;;23.20;43.60;;;;;;6300224;27;20337;-48
2022/04/24 10:46:39;;;;;;;;;;;23.10;43.60;;;;;;6299419;27;21119;-51
2022/04/24 10:49:40;;;;;;;;;;;23.20;43.60;;;;;;6294189;27;20046;-50
2022/04/24 10:52:43;;;;;;;;;;;23.20;43.60;;;;;;6311304;27;20027;-48
2022/04/24 10:55:44;;;;;;;;;;;23.20;43.60;;;;;;6304745;27;20326;-51
2022/04/24 10:58:50;;;;;;;;;;;23.30;43.60;;;;;;6311896;27;19932;-50
2022/04/24 11:01:52;;;;;;;;;;;23.30;43.70;;;;;;6308579;27;19988;-53
2022/04/24 11:04:57;;;;;;;;;;;23.20;43.60;;;;;;6302644;27;19939;-52
2022/04/24 11:08:01;;;;;;;;;;;23.30;43.60;;;;;;6310922;27;20004;-50
2022/04/24 11:11:04;;;;;;;;;;;23.30;43.60;;;;;;6311950;27;19932;-52
2022/04/24 11:14:06;;;;;;;;;;;23.30;43.60;;;;;;6306727;27;19927;-49
2022/04/24 11:17:08;;;;;;;;;;;23.20;43.50;;;;;;6304806;27;19932;-52
2022/04/24 11:20:10;;;;;;;;;;;23.30;43.60;;;;;;6306856;27;20003;-49
2022/04/24 11:23:12;;;;;;;;;;;23.30;43.60;;;;;;6307608;27;20603;-49
2022/04/24 11:26:14;;;;;;;;;;;23.20;43.50;;;;;;6289338;27;19967;-47
2022/04/24 11:29:16;;;;;;;;;;;23.30;44.20;;;;;;6311295;27;20943;-51
2022/04/24 11:32:18;;;;;;;;;;;23.30;43.50;;;;;;6308206;27;20813;-51
2022/04/24 11:35:21;;;;;;;;;;;23.40;43.60;;;;;;6293973;27;20904;-51
2022/04/24 11:38:29;;;;;;;;;;;23.40;43.60;;;;;;6306996;27;21111;-52
2022/04/24 11:41:31;;;;;;;;;;;23.60;43.60;;;;;;6311935;27;20860;-50
2022/04/24 11:51:09;;;;;;;;;;;23.40;43.50;;;;;;6289241;27;20697;-51
2022/04/24 11:54:30;;;;;;;;;;;23.40;43.50;;;;;;6288845;27;20849;-51
2022/04/24 11:57:32;;;;;;;;;;;23.40;43.50;;;;;;6308196;27;20888;-50
2022/04/24 12:00:34;;;;;;;;;;;23.40;43.50;;;;;;6311780;27;20054;-52
2022/04/24 12:03:37;;;;;;;;;;;22.90;43.20;;;;;;6301799;27;20038;-49
2022/04/24 12:06:38;;;;;;;;;;;23.40;43.50;;;;;;6305827;27;19928;-51
2022/04/24 12:09:39;;;;;;;;;;;23.30;43.40;;;;;;6308294;27;19927;-50
2022/04/24 12:12:44;;;;;;;;;;;23.50;43.50;;;;;;6310333;27;19935;-51
2022/04/24 12:15:50;;;;;;;;;;;23.50;43.50;;;;;;6276715;27;21263;-51
2022/04/24 12:18:53;;;;;;;;;;;23.40;43.50;;;;;;6296153;27;20880;-52
2022/04/24 12:21:55;;;;;;;;;;;23.50;43.60;;;;;;6307966;27;19938;-49
2022/04/24 12:25:07;;;;;;;;;;;23.60;43.60;;;;;;6292125;27;19932;-52
2022/04/24 12:28:08;;;;;;;;;;;23.50;43.60;;;;;;6286063;27;19967;-49
2022/04/24 12:31:19;;;;;;;;;;;23.30;43.40;;;;;;6302349;27;19943;-53
2022/04/24 12:34:21;;;;;;;;;;;23.60;43.70;;;;;;6294054;27;19931;-50
2022/04/24 12:37:27;;;;;;;;;;;23.40;43.50;;;;;;6295343;27;19937;-52
2022/04/24 12:40:29;;;;;;;;;;;23.60;43.60;;;;;;6301531;27;19931;-48
2022/04/24 12:43:31;;;;;;;;;;;23.40;43.40;;;;;;6297071;27;19931;-53
2022/04/24 12:46:34;;;;;;;;;;;23.60;43.50;;;;;;6291392;27;20070;-52
2022/04/24 12:49:35;;;;;;;;;;;23.70;43.60;;;;;;6297386;27;20963;-49
2022/04/24 12:52:37;;;;;;;;;;;23.70;43.60;;;;;;6299491;27;20045;-53
2022/04/24 12:55:38;;;;;;;;;;;23.60;43.50;;;;;;6294286;27;20672;-53
2022/04/24 12:58:40;;;;;;;;;;;23.60;43.50;;;;;;6298065;27;19966;-50
2022/04/24 13:01:43;;;;;;;;;;;23.70;44.20;;;;;;6299102;27;20077;-53
2022/04/24 13:04:52;;;;;;;;;;;23.70;43.60;;;;;;6295985;27;19935;-48
2022/04/24 13:07:54;;;;;;;;;;;23.70;43.60;;;;;;6301292;27;19931;-53
2022/04/24 13:10:55;;;;;;;;;;;23.70;43.50;;;;;;6299935;27;20047;-53
2022/04/24 13:13:57;;;;;;;;;;;23.50;43.50;;;;;;6300158;27;20772;-50
2022/04/24 13:20:15;;;;;;;;;;;23.70;43.60;;;;;;6302184;27;19924;-51
2022/04/24 13:23:36;;;;;;;;;;;23.70;43.60;;;;;;6282303;27;19931;-50
2022/04/24 13:26:37;;;;;;;;;;;23.60;43.50;;;;;;6283277;27;19965;-51
2022/04/24 13:29:39;;;;;;;;;;;23.70;43.60;;;;;;6294123;27;20849;-50
2022/04/24 13:32:41;;;;;;;;;;;23.70;43.60;;;;;;6289873;27;20011;-50
2022/04/24 13:35:42;;;;;;;;;;;23.70;43.60;;;;;;6282555;27;19938;-50
2022/04/24 13:38:44;;;;;;;;;;;23.50;43.50;;;;;;6292654;27;20541;-51
2022/04/24 13:41:46;;;;;;;;;;;23.70;43.60;;;;;;6297511;27;19932;-50
2022/04/24 13:44:53;;;;;;;;;;;23.70;43.90;;;;;;6291825;27;19938;-47
2022/04/24 13:47:55;;;;;;;;;;;23.70;43.60;;;;;;6296854;27;20000;-56
2022/04/24 13:50:57;;;;;;;;;;;23.70;43.50;;;;;;6297635;27;20764;-48
2022/04/24 13:53:58;;;;;;;;;;;23.70;43.50;;;;;;6288910;27;20066;-53
2022/04/24 13:57:00;;;;;;;;;;;23.60;43.50;;;;;;6301732;27;19935;-49
2022/04/24 14:00:01;;;;;;;;;;;23.70;43.50;;;;;;6296826;27;19931;-50
2022/04/24 14:03:12;;;;;;;;;;;23.70;43.50;;;;;;6299503;27;19948;-51
2022/04/24 14:06:14;;;;;;;;;;;23.80;43.60;;;;;;6280162;27;19931;-53
2022/04/24 14:09:16;;;;;;;;;;;23.80;43.50;;;;;;6297883;27;19930;-47
2022/04/24 14:12:18;;;;;;;;;;;23.90;43.60;;;;;;6276050;27;19938;-50
2022/04/24 14:15:25;;;;;;;;;;;23.80;43.60;;;;;;6294695;27;20300;-50
2022/04/24 14:18:27;;;;;;;;;;;23.70;43.60;;;;;;6297520;27;20003;-48
2022/04/24 14:21:29;;;;;;;;;;;23.80;43.50;;;;;;6296320;27;20695;-50
2022/04/24 14:24:30;;;;;;;;;;;23.60;43.40;;;;;;6294870;27;19931;-50
2022/04/24 14:27:33;;;;;;;;;;;23.90;43.70;;;;;;6299787;27;19923;-51
2022/04/24 14:30:34;;;;;;;;;;;23.80;43.50;;;;;;6299584;27;19927;-51
2022/04/24 14:33:36;;;;;;;;;;;23.70;43.40;;;;;;6301401;27;19938;-49
2022/04/24 14:36:43;;;;;;;;;;;23.80;43.50;;;;;;6292159;27;19932;-48
2022/04/24 14:39:44;;;;;;;;;;;23.80;43.50;;;;;;6296913;27;20045;-50
2022/04/24 14:42:46;;;;;;;;;;;23.80;43.50;;;;;;6297109;27;19931;-49
2022/04/24 14:58:44;;;;;;;;;;;23.80;43.40;;;;;;6292049;27;20326;-50
2022/04/24 15:01:46;;;;;;;;;;;23.80;43.40;;;;;;6301380;27;20045;-49
2022/04/24 15:04:48;;;;;;;;;;;23.80;43.40;;;;;;6295525;27;21036;-49
2022/04/24 15:07:49;;;;;;;;;;;23.80;43.40;;;;;;6297966;27;20339;-49
2022/04/24 15:10:51;;;;;;;;;;;23.80;43.40;;;;;;6300911;27;20712;-52
2022/04/24 15:13:52;;;;;;;;;;;23.80;43.40;;;;;;6288890;27;19931;-52
2022/04/24 15:16:53;;;;;;;;;;;23.80;43.50;;;;;;6296631;27;19980;-48
2022/04/24 15:19:55;;;;;;;;;;;23.80;43.40;;;;;;6295448;27;20894;-48
2022/04/24 15:22:58;;;;;;;;;;;23.80;43.40;;;;;;6297362;27;19939;-47
2022/04/24 15:25:59;;;;;;;;;;;23.80;43.40;;;;;;6296530;27;20285;-49
2022/04/24 15:29:02;;;;;;;;;;;23.80;43.40;;;;;;6288603;27;19970;-47
2022/04/24 15:32:04;;;;;;;;;;;23.90;43.50;;;;;;6295740;27;20000;-53
2022/04/24 15:35:08;;;;;;;;;;;23.80;43.40;;;;;;6292702;27;20004;-52
2022/04/24 15:38:09;;;;;;;;;;;23.80;43.40;;;;;;6289183;27;19931;-50
2022/04/24 15:41:11;;;;;;;;;;;23.80;43.40;;;;;;6294098;27;19931;-51
2022/04/24 15:44:13;;;;;;;;;;;23.70;43.40;;;;;;6285932;27;20068;-54
2022/04/24 15:47:15;;;;;;;;;;;23.80;43.40;;;;;;6278665;27;20033;-51
2022/04/24 15:50:17;;;;;;;;;;;23.80;43.40;;;;;;6283852;27;20023;-49
2022/04/24 15:53:19;;;;;;;;;;;23.80;43.40;;;;;;6283966;27;20055;-49
2022/04/24 15:56:20;;;;;;;;;;;23.90;43.40;;;;;;6274569;27;19938;-50
2022/04/24 15:59:26;;;;;;;;;;;23.90;43.40;;;;;;6280786;27;21269;-50
2022/04/24 16:02:27;;;;;;;;;;;23.80;43.40;;;;;;6277722;27;19981;-52
2022/04/24 16:05:30;;;;;;;;;;;23.70;43.40;;;;;;6273752;27;19981;-51
2022/04/24 16:08:31;;;;;;;;;;;23.80;43.40;;;;;;6276738;27;19938;-50
2022/04/24 16:11:33;;;;;;;;;;;23.70;43.40;;;;;;6273881;27;20196;-53
2022/04/24 16:14:35;;;;;;;;;;;23.80;43.50;;;;;;6263702;27;19938;-52
2022/04/24 16:17:36;;;;;;;;;;;23.70;43.40;;;;;;6278823;27;20050;-52
2022/04/24 16:20:38;;;;;;;;;;;23.80;43.50;;;;;;6255074;27;20001;-49
2022/04/24 16:23:40;;;;;;;;;;;23.80;43.60;;;;;;6264413;27;19959;-50
2022/04/24 16:26:44;;;;;;;;;;;23.90;43.60;;;;;;6273527;27;20004;-50
2022/04/24 16:32:58;;;;;;;;;;;23.80;43.40;;;;;;6270481;27;19931;-51
2022/04/24 16:36:01;;;;;;;;;;;23.90;43.50;;;;;;6252100;27;21122;-51
2022/04/24 16:39:03;;;;;;;;;;;23.80;43.30;;;;;;6258145;27;19938;-51
2022/04/24 16:42:04;;;;;;;;;;;23.80;43.30;;;;;;6268132;27;19931;-50
2022/04/24 16:45:06;;;;;;;;;;;23.90;43.30;;;;;;6259420;27;19932;-48
2022/04/24 16:48:08;;;;;;;;;;;23.90;43.40;;;;;;6248829;27;20050;-50
2022/04/24 17:00:55;;;;;;;;;;;23.80;43.40;;;;;;6252650;27;19931;-51
2022/04/24 17:03:57;;;;;;;;;;;23.80;43.30;;;;;;6250931;27;19935;-47
2022/04/24 17:06:59;;;;;;;;;;;23.90;43.40;;;;;;6238673;27;20054;-51
2022/04/24 17:10:02;;;;;;;;;;;24.00;43.10;;;;;;6240610;27;22297;-50
2022/04/24 17:13:05;;;;;;;;;;;23.80;43.30;;;;;;6249159;27;19962;-48
2022/04/24 17:16:08;;;;;;;;;;;24.10;43.40;;;;;;6250756;27;20111;-49
2022/04/24 17:19:10;;;;;;;;;;;23.80;43.30;;;;;;6225588;27;19962;-49
2022/04/24 17:22:12;;;;;;;;;;;23.90;43.30;;;;;;6251002;27;20363;-51
2022/04/24 17:25:14;;;;;;;;;;;23.80;43.30;;;;;;6242146;27;19931;-47
2022/04/24 17:28:15;;;;;;;;;;;23.90;43.40;;;;;;6233702;27;19935;-50
2022/04/24 17:31:17;;;;;;;;;;;23.80;43.40;;;;;;6231358;27;20048;-48
2022/04/24 17:34:19;;;;;;;;;;;23.90;43.60;;;;;;6236509;27;19931;-47
2022/04/24 17:37:21;;;;;;;;;;;23.80;43.60;;;;;;6239551;27;19931;-49
2022/04/24 17:40:23;;;;;;;;;;;23.70;43.50;;;;;;6240502;27;19932;-49
2022/04/24 17:43:24;;;;;;;;;;;23.70;43.50;;;;;;6230926;27;19931;-48
2022/04/24 17:46:27;;;;;;;;;;;23.80;43.60;;;;;;6245288;27;20094;-49
2022/04/24 17:49:29;;;;;;;;;;;23.70;43.50;;;;;;6253334;27;19939;-50
2022/04/24 17:52:31;;;;;;;;;;;23.80;43.60;;;;;;6254948;27;19932;-53
2022/04/24 17:55:33;;;;;;;;;;;23.80;43.60;;;;;;6232298;27;19979;-50
2022/04/24 17:58:35;;;;;;;;;;;23.80;43.60;;;;;;6226896;27;19931;-49
2022/04/24 18:01:36;;;;;;;;;;;23.70;43.60;;;;;;6241252;27;19931;-53
2022/04/24 18:04:38;;;;;;;;;;;23.80;43.60;;;;;;6209400;27;20016;-49
2022/04/24 18:07:41;;;;;;;;;;;23.70;43.60;;;;;;6245280;27;22782;-52
2022/04/24 18:10:43;;;;;;;;;;;23.70;43.60;;;;;;6247927;27;20021;-49
2022/04/24 18:13:45;;;;;;;;;;;23.70;43.60;;;;;;6241287;27;19931;-51
2022/04/24 18:16:47;;;;;;;;;;;23.60;43.60;;;;;;6243760;27;19932;-49